Terminal Aerodrome Forecast
Issued by NWS

Home | Current Version | Previous Version | Text Only | Print | Product List | Glossary On
Versions: 1 2 3 4 5 6 7 8 9 10 11 12
424
FTUS42 TJSJ 131140
TAFJBQ
TAF
TJBQ 131140Z 1312/1412 15005KT P6SM FEW060
     FM131400 04008KT P6SM FEW025 FEW050
     FM131730 01010KT P6SM VCSH SCT025 SCT050
     FM132300 VRB05KT P6SM SCT060
      AMD NOT SKED 1402/1411=

USA.gov is the U.S. government's official web portal to all federal, state and local government web resources and services.